OIAM  Mahshahr Airport

Add Bookmark

Iran

Status IATA
Operational MRX
Latitude Longitude
30° 33' 22" N 49° 9' 6" E
30.556200 49.151901
Local (DST + 5) UTC (GMT + 4)
Oct 1, 2014 09:25 Oct 1, 2014 05:55
Sunrise-Sunset Local UTC
Begin Civil Twilight 05:41 02:11
Sunrise 06:05 02:35
Sunset 06:00 14:30
End Civil Twilight 06:24 14:54

Current Weather

METAR Observed MVFR
OIAM 010500Z 15004KT 7000 SKC 29/18 Q1010 Wed, Oct 1, 2014 @ 05:00 UTC
(55 Minutes ago)
Marginal Visual Flight Rules
Wind Visibility Clouds Conditions
150° at 4 knots (7 kph) 7000 meters
  • Clear skies
  • No significant weather
Temperatures Readings Precipitation
Current Temp 29°C (84°F)
Dewpoint 18°C (64°F)
Heat Index 29°C (85°F)
Humidity 51%
Altimeter 29.82"Hg
Sea Level Pressure 1010mb
Field Elevation 13.12'
None Recorded

Additional weather within a 92.6km radius of OIAM

Map ICAO Location
OIAG 54.4km E (067°)
OIAA 90.7km W (257°)

24 Hour Weather History

Loading
-

24 Hour Weather Graphs

Loading
-

CheckWX.com is intended as a tool to help pilots better visualize weather data. It is not intended as a substitute for an official weather briefing obtained from a Flight Service Station. CheckWX.com does not meet the FAA requirements for an official pre-flight weather briefing. Therefore, it's important that pilots still call and obtain an official FSS pre-flight weather briefing.